Latest METAR Data

Below are the latest METARs ("Meteorological Services to Airmen Reports"), for RNAS Culdrose and Newquay Airport.

EGDR - RNAS Culdrose
Distance from station: SW 6mi, 9km
Updated: Thu, 02-Jul-2020 1:50pm BST
Nearby showers, Mostly cloudy
Nearby showers, Mostly cloudy
 Wind from W
Wind: W 9 mph , 15 km/h
Temperature: 61°F , 16°C
Dew Point: 55°F , 13°C
Humidity: 83%
Barometer: 30 inHg , 1016 hPa
Summary: Nearby Showers
Clouds: Mostly Cloudy
Visibility: 6 miles , 10 km
Cloud details: Few Clouds 1000 ft
Mostly Cloudy 1500 ft
2020/07/02 12:50 EGDR 021250Z 27008KT 9999 VCSH FEW010 BKN015 16/13 Q1016 TEMPO 5000 SHRA BKN010 BKN015TCU RMK WHT TEMPO GRN
EGHQ - Newquay Airport
Distance from station: NE 21mi, 34km
Updated: Thu, 02-Jul-2020 1:50pm BST
Mostly Cloudy
Mostly Cloudy
 Wind from WNW
Wind: WNW 16 mph , 26 km/h
Temperature: 61°F , 16°C
Dew Point: 55°F , 13°C
Humidity: 83%
Barometer: 29.97 inHg , 1015 hPa
Clouds: Mostly Cloudy
Visibility: 6 miles , 10 km
Cloud details: Mostly Cloudy 800 ft
2020/07/02 12:50 EGHQ 021250Z 29014KT 9999 BKN008 16/13 Q1015
 
EGTE - Exeter Airport
Distance from station: ENE 88mi, 141km
Updated: Thu, 02-Jul-2020 1:50pm BST
Partly Cloudy
Partly Cloudy
 Wind from WNW
Wind: WNW 14 mph , 22 km/h
Temperature: 66°F , 19°C
Dew Point: 54°F , 12°C
Humidity: 64%
Barometer: 29.91 inHg , 1013 hPa
Clouds: Partly Cloudy
Visibility: 6 miles , 10 km
Cloud details: Partly Cloudy 4000 ft
2020/07/02 12:50 EGTE 021250Z 29012KT 9999 SCT040 19/12 Q1013
EGHE - St Marys, IOS
Distance from station: W 51mi, 82km
Updated: Thu, 02-Jul-2020 10:20am BST
NOT Current
Few Clouds
Few Clouds
 Wind from W
Wind: W 16 mph , 26 km/h
Temperature: 61°F , 16°C
Dew Point: 55°F , 13°C
Humidity: 83%
Barometer: 29.94 inHg , 1014 hPa
Clouds: Few Clouds
Visibility: 6 miles , 10 km
Cloud details: Few Clouds 1200 ft
2020/07/02 09:20 EGHE 020920Z 28014KT 9999 FEW012 16/13 Q1014

Metar display script from Saratoga-Weather.org

 

 

UK - WEATHER STATION TOPSITES - UK World Weather Websites

Copyright © Carnkie Weather 2009 - 2020.